sensor_id;sensor_type;location;lat;lon;timestamp;temperature;humidity
33739;DHT22;20063;51.730;11.110;2022-12-18T00:00:44;-5.20;99.90
33739;DHT22;20063;51.730;11.110;2022-12-18T00:03:14;-5.30;99.90
33739;DHT22;20063;51.730;11.110;2022-12-18T00:05:50;-5.30;99.90
33739;DHT22;20063;51.730;11.110;2022-12-18T00:08:17;-5.30;99.90
33739;DHT22;20063;51.730;11.110;2022-12-18T00:10:43;-5.30;99.90
33739;DHT22;20063;51.730;11.110;2022-12-18T00:13:09;-5.20;99.90
33739;DHT22;20063;51.730;11.110;2022-12-18T00:15:36;-5.30;99.90
33739;DHT22;20063;51.730;11.110;2022-12-18T00:18:01;-5.30;99.90
33739;DHT22;20063;51.730;11.110;2022-12-18T00:20:27;-5.40;99.90
33739;DHT22;20063;51.730;11.110;2022-12-18T00:22:53;-5.40;99.90
33739;DHT22;20063;51.730;11.110;2022-12-18T00:25:19;-5.40;99.90
33739;DHT22;20063;51.730;11.110;2022-12-18T00:27:44;-5.50;99.90
33739;DHT22;20063;51.730;11.110;2022-12-18T00:30:10;-5.50;99.90
33739;DHT22;20063;51.730;11.110;2022-12-18T00:32:36;-5.50;99.90
33739;DHT22;20063;51.730;11.110;2022-12-18T00:35:03;-5.50;99.90
33739;DHT22;20063;51.730;11.110;2022-12-18T00:37:28;-5.60;99.90
33739;DHT22;20063;51.730;11.110;2022-12-18T00:39:54;-5.50;99.90
33739;DHT22;20063;51.730;11.110;2022-12-18T00:42:20;-5.60;99.90
33739;DHT22;20063;51.730;11.110;2022-12-18T00:45:28;-5.60;99.90
33739;DHT22;20063;51.730;11.110;2022-12-18T00:47:55;-5.60;99.90
33739;DHT22;20063;51.730;11.110;2022-12-18T00:50:22;-5.50;99.90
33739;DHT22;20063;51.730;11.110;2022-12-18T00:52:48;-5.40;99.90
33739;DHT22;20063;51.730;11.110;2022-12-18T00:55:14;-5.50;99.90
33739;DHT22;20063;51.730;11.110;2022-12-18T00:57:40;-5.50;99.90
33739;DHT22;20063;51.730;11.110;2022-12-18T01:00:08;-5.50;99.90
33739;DHT22;20063;51.730;11.110;2022-12-18T01:02:33;-5.50;99.90
33739;DHT22;20063;51.730;11.110;2022-12-18T01:04:59;-5.50;99.90
33739;DHT22;20063;51.730;11.110;2022-12-18T01:07:25;-5.50;99.90
33739;DHT22;20063;51.730;11.110;2022-12-18T01:09:50;-5.50;99.90
33739;DHT22;20063;51.730;11.110;2022-12-18T01:12:16;-5.50;99.90
33739;DHT22;20063;51.730;11.110;2022-12-18T01:14:42;-5.60;99.90
33739;DHT22;20063;51.730;11.110;2022-12-18T01:17:08;-5.60;99.90
33739;DHT22;20063;51.730;11.110;2022-12-18T01:19:33;-5.70;99.90
33739;DHT22;20063;51.730;11.110;2022-12-18T01:21:59;-5.70;99.90
33739;DHT22;20063;51.730;11.110;2022-12-18T01:24:25;-5.70;99.90
33739;DHT22;20063;51.730;11.110;2022-12-18T01:26:51;-5.70;99.90
33739;DHT22;20063;51.730;11.110;2022-12-18T01:29:17;-5.80;99.90
33739;DHT22;20063;51.730;11.110;2022-12-18T01:31:43;-5.70;99.90
33739;DHT22;20063;51.730;11.110;2022-12-18T01:34:09;-5.70;99.90
33739;DHT22;20063;51.730;11.110;2022-12-18T01:36:37;-5.70;99.90
33739;DHT22;20063;51.730;11.110;2022-12-18T01:39:21;-5.80;99.90
33739;DHT22;20063;51.730;11.110;2022-12-18T01:41:46;-5.80;99.90
33739;DHT22;20063;51.730;11.110;2022-12-18T01:50:01;-5.80;99.90
33739;DHT22;20063;51.730;11.110;2022-12-18T01:52:29;-5.80;99.90
33739;DHT22;20063;51.730;11.110;2022-12-18T01:54:56;-5.80;99.90
33739;DHT22;20063;51.730;11.110;2022-12-18T01:57:23;-5.80;99.90
33739;DHT22;20063;51.730;11.110;2022-12-18T01:59:52;-5.80;99.90
33739;DHT22;20063;51.730;11.110;2022-12-18T02:02:20;-5.80;99.90
33739;DHT22;20063;51.730;11.110;2022-12-18T02:04:46;-5.80;99.90
33739;DHT22;20063;51.730;11.110;2022-12-18T02:07:46;-5.80;99.90
33739;DHT22;20063;51.730;11.110;2022-12-18T02:10:15;-5.70;99.90
33739;DHT22;20063;51.730;11.110;2022-12-18T02:12:58;-5.70;99.90
33739;DHT22;20063;51.730;11.110;2022-12-18T02:18:35;-5.70;99.90
33739;DHT22;20063;51.730;11.110;2022-12-18T02:23:57;-5.70;99.90
33739;DHT22;20063;51.730;11.110;2022-12-18T02:26:47;-5.70;99.90
33739;DHT22;20063;51.730;11.110;2022-12-18T02:29:18;-5.80;99.90
33739;DHT22;20063;51.730;11.110;2022-12-18T02:31:51;-5.80;99.90
33739;DHT22;20063;51.730;11.110;2022-12-18T02:34:18;-5.80;99.90
33739;DHT22;20063;51.730;11.110;2022-12-18T02:36:46;-5.80;99.90
33739;DHT22;20063;51.730;11.110;2022-12-18T02:39:14;-5.80;99.90
33739;DHT22;20063;51.730;11.110;2022-12-18T02:41:41;-5.70;99.90
33739;DHT22;20063;51.730;11.110;2022-12-18T02:44:10;-5.80;99.90
33739;DHT22;20063;51.730;11.110;2022-12-18T02:46:45;-5.70;99.90
33739;DHT22;20063;51.730;11.110;2022-12-18T02:52:34;-5.70;99.90
33739;DHT22;20063;51.730;11.110;2022-12-18T03:00:20;-5.70;99.90
33739;DHT22;20063;51.730;11.110;2022-12-18T03:05:35;-5.70;99.90
33739;DHT22;20063;51.730;11.110;2022-12-18T03:08:07;-5.80;99.90
33739;DHT22;20063;51.730;11.110;2022-12-18T03:10:42;-5.90;99.90
33739;DHT22;20063;51.730;11.110;2022-12-18T03:13:16;-5.90;99.90
33739;DHT22;20063;51.730;11.110;2022-12-18T03:15:49;-5.90;99.90
33739;DHT22;20063;51.730;11.110;2022-12-18T03:18:22;-6.00;99.90
33739;DHT22;20063;51.730;11.110;2022-12-18T03:20:49;-6.00;99.90
33739;DHT22;20063;51.730;11.110;2022-12-18T03:23:21;-6.10;99.90
33739;DHT22;20063;51.730;11.110;2022-12-18T03:25:51;-6.10;99.90
33739;DHT22;20063;51.730;11.110;2022-12-18T03:28:22;-6.10;99.90
33739;DHT22;20063;51.730;11.110;2022-12-18T03:30:51;-6.10;99.90
33739;DHT22;20063;51.730;11.110;2022-12-18T03:33:27;-6.10;99.90
33739;DHT22;20063;51.730;11.110;2022-12-18T03:35:55;-6.10;99.90
33739;DHT22;20063;51.730;11.110;2022-12-18T03:38:21;-6.10;99.90
33739;DHT22;20063;51.730;11.110;2022-12-18T03:41:01;-6.00;99.90
33739;DHT22;20063;51.730;11.110;2022-12-18T03:52:01;-5.90;99.90
33739;DHT22;20063;51.730;11.110;2022-12-18T03:54:29;-5.80;99.90
33739;DHT22;20063;51.730;11.110;2022-12-18T03:57:01;-5.80;99.90
33739;DHT22;20063;51.730;11.110;2022-12-18T03:59:30;-5.80;99.90
33739;DHT22;20063;51.730;11.110;2022-12-18T04:01:57;-5.80;99.90
33739;DHT22;20063;51.730;11.110;2022-12-18T04:04:25;-5.90;99.90
33739;DHT22;20063;51.730;11.110;2022-12-18T04:06:51;-5.90;99.90
33739;DHT22;20063;51.730;11.110;2022-12-18T04:09:19;-5.90;99.90
33739;DHT22;20063;51.730;11.110;2022-12-18T04:11:45;-6.00;99.90
33739;DHT22;20063;51.730;11.110;2022-12-18T04:14:12;-6.10;99.90
33739;DHT22;20063;51.730;11.110;2022-12-18T04:16:38;-6.10;99.90
33739;DHT22;20063;51.730;11.110;2022-12-18T04:19:04;-6.20;99.90
33739;DHT22;20063;51.730;11.110;2022-12-18T04:21:30;-6.20;99.90
33739;DHT22;20063;51.730;11.110;2022-12-18T04:23:55;-6.20;99.90
33739;DHT22;20063;51.730;11.110;2022-12-18T04:26:21;-6.20;99.90
33739;DHT22;20063;51.730;11.110;2022-12-18T04:28:47;-6.30;99.90
33739;DHT22;20063;51.730;11.110;2022-12-18T04:31:12;-6.20;99.90
33739;DHT22;20063;51.730;11.110;2022-12-18T04:33:38;-6.20;99.90
33739;DHT22;20063;51.730;11.110;2022-12-18T04:36:04;-6.20;99.90
33739;DHT22;20063;51.730;11.110;2022-12-18T04:38:30;-6.20;99.90
33739;DHT22;20063;51.730;11.110;2022-12-18T04:40:55;-6.20;99.90
33739;DHT22;20063;51.730;11.110;2022-12-18T04:43:24;-6.20;99.90
33739;DHT22;20063;51.730;11.110;2022-12-18T04:45:50;-6.20;99.90
33739;DHT22;20063;51.730;11.110;2022-12-18T04:48:15;-6.20;99.90
33739;DHT22;20063;51.730;11.110;2022-12-18T04:50:41;-6.20;99.90
33739;DHT22;20063;51.730;11.110;2022-12-18T04:53:10;-6.20;99.90
33739;DHT22;20063;51.730;11.110;2022-12-18T04:55:35;-6.20;99.90
33739;DHT22;20063;51.730;11.110;2022-12-18T04:58:01;-6.20;99.90
33739;DHT22;20063;51.730;11.110;2022-12-18T05:00:26;-6.20;99.90
33739;DHT22;20063;51.730;11.110;2022-12-18T05:02:52;-6.20;99.90
33739;DHT22;20063;51.730;11.110;2022-12-18T05:05:18;-6.30;99.90
33739;DHT22;20063;51.730;11.110;2022-12-18T05:07:43;-6.30;99.90
33739;DHT22;20063;51.730;11.110;2022-12-18T05:10:09;-6.30;99.90
33739;DHT22;20063;51.730;11.110;2022-12-18T05:12:35;-6.30;99.90
33739;DHT22;20063;51.730;11.110;2022-12-18T05:15:20;-6.30;99.90
33739;DHT22;20063;51.730;11.110;2022-12-18T05:17:46;-6.40;99.90
33739;DHT22;20063;51.730;11.110;2022-12-18T05:20:11;-6.40;99.90
33739;DHT22;20063;51.730;11.110;2022-12-18T05:22:37;-6.40;99.90
33739;DHT22;20063;51.730;11.110;2022-12-18T05:25:03;-6.50;99.90
33739;DHT22;20063;51.730;11.110;2022-12-18T05:27:28;-6.40;99.90
33739;DHT22;20063;51.730;11.110;2022-12-18T05:29:54;-6.40;99.90
33739;DHT22;20063;51.730;11.110;2022-12-18T05:32:19;-6.40;99.90
33739;DHT22;20063;51.730;11.110;2022-12-18T05:34:45;-6.40;99.90
33739;DHT22;20063;51.730;11.110;2022-12-18T05:37:11;-6.40;99.90
33739;DHT22;20063;51.730;11.110;2022-12-18T05:39:36;-6.50;99.90
33739;DHT22;20063;51.730;11.110;2022-12-18T05:42:02;-6.50;99.90
33739;DHT22;20063;51.730;11.110;2022-12-18T05:44:27;-6.60;99.90
33739;DHT22;20063;51.730;11.110;2022-12-18T05:46:53;-6.60;99.90
33739;DHT22;20063;51.730;11.110;2022-12-18T05:49:19;-6.60;99.90
33739;DHT22;20063;51.730;11.110;2022-12-18T05:51:45;-6.60;99.90
33739;DHT22;20063;51.730;11.110;2022-12-18T05:54:11;-6.60;99.90
33739;DHT22;20063;51.730;11.110;2022-12-18T05:56:37;-6.60;99.90
33739;DHT22;20063;51.730;11.110;2022-12-18T05:59:02;-6.60;99.90
33739;DHT22;20063;51.730;11.110;2022-12-18T06:01:28;-6.60;99.90
33739;DHT22;20063;51.730;11.110;2022-12-18T06:03:54;-6.60;99.90
33739;DHT22;20063;51.730;11.110;2022-12-18T06:06:23;-6.60;99.90
33739;DHT22;20063;51.730;11.110;2022-12-18T06:08:50;-6.50;99.90
33739;DHT22;20063;51.730;11.110;2022-12-18T06:11:26;-6.50;99.90
33739;DHT22;20063;51.730;11.110;2022-12-18T06:13:54;-6.70;99.90
33739;DHT22;20063;51.730;11.110;2022-12-18T06:16:20;-6.60;99.90
33739;DHT22;20063;51.730;11.110;2022-12-18T06:18:45;-6.70;99.90
33739;DHT22;20063;51.730;11.110;2022-12-18T06:21:11;-6.70;99.90
33739;DHT22;20063;51.730;11.110;2022-12-18T06:23:38;-6.60;99.90
33739;DHT22;20063;51.730;11.110;2022-12-18T06:26:09;-6.70;99.90
33739;DHT22;20063;51.730;11.110;2022-12-18T06:28:35;-6.70;99.90
33739;DHT22;20063;51.730;11.110;2022-12-18T06:31:03;-6.70;99.90
33739;DHT22;20063;51.730;11.110;2022-12-18T06:33:29;-6.70;99.90
33739;DHT22;20063;51.730;11.110;2022-12-18T06:36:00;-6.70;99.90
33739;DHT22;20063;51.730;11.110;2022-12-18T06:38:26;-6.70;99.90
33739;DHT22;20063;51.730;11.110;2022-12-18T06:40:51;-6.70;99.90
33739;DHT22;20063;51.730;11.110;2022-12-18T06:43:17;-6.70;99.90
33739;DHT22;20063;51.730;11.110;2022-12-18T06:45:42;-6.70;99.90
33739;DHT22;20063;51.730;11.110;2022-12-18T06:48:08;-6.60;99.90
33739;DHT22;20063;51.730;11.110;2022-12-18T06:50:34;-6.60;99.90
33739;DHT22;20063;51.730;11.110;2022-12-18T06:53:00;-6.60;99.90
33739;DHT22;20063;51.730;11.110;2022-12-18T06:55:25;-6.60;99.90
33739;DHT22;20063;51.730;11.110;2022-12-18T06:57:51;-6.60;99.90
33739;DHT22;20063;51.730;11.110;2022-12-18T07:00:17;-6.60;99.90
33739;DHT22;20063;51.730;11.110;2022-12-18T07:02:43;-6.60;99.90
33739;DHT22;20063;51.730;11.110;2022-12-18T07:05:08;-6.50;99.90
33739;DHT22;20063;51.730;11.110;2022-12-18T07:07:35;-6.50;99.90
33739;DHT22;20063;51.730;11.110;2022-12-18T07:10:01;-6.40;99.90
33739;DHT22;20063;51.730;11.110;2022-12-18T07:12:28;-6.40;99.90
33739;DHT22;20063;51.730;11.110;2022-12-18T07:14:53;-6.30;99.90
33739;DHT22;20063;51.730;11.110;2022-12-18T07:17:19;-6.30;99.90
33739;DHT22;20063;51.730;11.110;2022-12-18T07:19:44;-6.30;99.90
33739;DHT22;20063;51.730;11.110;2022-12-18T07:22:10;-6.30;99.90
33739;DHT22;20063;51.730;11.110;2022-12-18T07:24:37;-6.20;99.90
33739;DHT22;20063;51.730;11.110;2022-12-18T07:27:02;-6.20;99.90
33739;DHT22;20063;51.730;11.110;2022-12-18T07:29:28;-6.20;99.90
33739;DHT22;20063;51.730;11.110;2022-12-18T07:31:54;-6.20;99.90
33739;DHT22;20063;51.730;11.110;2022-12-18T07:34:19;-6.30;99.90
33739;DHT22;20063;51.730;11.110;2022-12-18T07:36:45;-6.30;99.90
33739;DHT22;20063;51.730;11.110;2022-12-18T07:39:11;-6.30;99.90
33739;DHT22;20063;51.730;11.110;2022-12-18T07:41:37;-6.30;99.90
33739;DHT22;20063;51.730;11.110;2022-12-18T07:44:03;-6.30;99.90
33739;DHT22;20063;51.730;11.110;2022-12-18T07:46:28;-6.30;99.90
33739;DHT22;20063;51.730;11.110;2022-12-18T07:48:54;-6.40;99.90
33739;DHT22;20063;51.730;11.110;2022-12-18T07:51:19;-6.40;99.90
33739;DHT22;20063;51.730;11.110;2022-12-18T07:53:45;-6.50;99.90
33739;DHT22;20063;51.730;11.110;2022-12-18T07:56:12;-6.50;99.90
33739;DHT22;20063;51.730;11.110;2022-12-18T07:58:38;-6.50;99.90
33739;DHT22;20063;51.730;11.110;2022-12-18T08:01:05;-6.50;99.90
33739;DHT22;20063;51.730;11.110;2022-12-18T08:03:34;-6.50;99.90
33739;DHT22;20063;51.730;11.110;2022-12-18T08:06:04;-6.50;99.90
33739;DHT22;20063;51.730;11.110;2022-12-18T08:08:30;-6.50;99.90
33739;DHT22;20063;51.730;11.110;2022-12-18T08:10:55;-6.50;99.90
33739;DHT22;20063;51.730;11.110;2022-12-18T08:13:25;-6.50;99.90
33739;DHT22;20063;51.730;11.110;2022-12-18T08:16:04;-6.50;99.90
33739;DHT22;20063;51.730;11.110;2022-12-18T08:18:32;-6.40;99.90
33739;DHT22;20063;51.730;11.110;2022-12-18T08:21:18;-6.50;99.90
33739;DHT22;20063;51.730;11.110;2022-12-18T08:23:44;-6.40;99.90
33739;DHT22;20063;51.730;11.110;2022-12-18T08:26:13;-6.40;99.90
33739;DHT22;20063;51.730;11.110;2022-12-18T08:28:39;-6.40;99.90
33739;DHT22;20063;51.730;11.110;2022-12-18T08:31:06;-6.30;99.90
33739;DHT22;20063;51.730;11.110;2022-12-18T08:33:33;-6.20;99.90
33739;DHT22;20063;51.730;11.110;2022-12-18T08:36:00;-6.10;99.90
33739;DHT22;20063;51.730;11.110;2022-12-18T08:38:26;-6.00;99.90
33739;DHT22;20063;51.730;11.110;2022-12-18T08:41:06;-5.90;99.90
33739;DHT22;20063;51.730;11.110;2022-12-18T08:43:32;-5.80;99.90
33739;DHT22;20063;51.730;11.110;2022-12-18T08:46:18;-5.70;99.90
33739;DHT22;20063;51.730;11.110;2022-12-18T08:48:44;-5.70;99.90
33739;DHT22;20063;51.730;11.110;2022-12-18T08:51:10;-5.60;99.90
33739;DHT22;20063;51.730;11.110;2022-12-18T08:53:39;-5.50;99.90
33739;DHT22;20063;51.730;11.110;2022-12-18T08:56:05;-5.50;99.90
33739;DHT22;20063;51.730;11.110;2022-12-18T08:58:31;-5.40;99.90
33739;DHT22;20063;51.730;11.110;2022-12-18T09:01:03;-5.40;99.90
33739;DHT22;20063;51.730;11.110;2022-12-18T09:03:29;-5.40;99.90
33739;DHT22;20063;51.730;11.110;2022-12-18T09:05:54;-5.40;99.90
33739;DHT22;20063;51.730;11.110;2022-12-18T09:08:20;-5.30;99.90
33739;DHT22;20063;51.730;11.110;2022-12-18T09:10:48;-5.20;99.90
33739;DHT22;20063;51.730;11.110;2022-12-18T09:13:15;-5.20;99.90
33739;DHT22;20063;51.730;11.110;2022-12-18T09:15:46;-5.20;99.90
33739;DHT22;20063;51.730;11.110;2022-12-18T09:18:13;-5.10;99.90
33739;DHT22;20063;51.730;11.110;2022-12-18T09:20:39;-5.00;99.90
33739;DHT22;20063;51.730;11.110;2022-12-18T09:23:06;-4.90;99.90
33739;DHT22;20063;51.730;11.110;2022-12-18T09:25:33;-4.80;99.90
33739;DHT22;20063;51.730;11.110;2022-12-18T09:28:02;-4.60;99.90
33739;DHT22;20063;51.730;11.110;2022-12-18T09:30:28;-4.60;99.90
33739;DHT22;20063;51.730;11.110;2022-12-18T09:32:53;-4.60;99.90
33739;DHT22;20063;51.730;11.110;2022-12-18T09:35:19;-4.50;99.90
33739;DHT22;20063;51.730;11.110;2022-12-18T09:37:44;-4.40;99.90
33739;DHT22;20063;51.730;11.110;2022-12-18T09:40:19;-4.30;99.90
33739;DHT22;20063;51.730;11.110;2022-12-18T09:42:52;-4.30;99.90
33739;DHT22;20063;51.730;11.110;2022-12-18T09:45:19;-4.20;99.90
33739;DHT22;20063;51.730;11.110;2022-12-18T09:47:46;-4.20;99.90
33739;DHT22;20063;51.730;11.110;2022-12-18T09:50:33;-4.10;99.90
33739;DHT22;20063;51.730;11.110;2022-12-18T09:53:06;-4.10;99.90
33739;DHT22;20063;51.730;11.110;2022-12-18T09:55:38;-4.10;99.90
33739;DHT22;20063;51.730;11.110;2022-12-18T09:58:31;-4.00;99.90
33739;DHT22;20063;51.730;11.110;2022-12-18T10:00:57;-3.90;99.90
33739;DHT22;20063;51.730;11.110;2022-12-18T10:03:23;-3.90;99.90
33739;DHT22;20063;51.730;11.110;2022-12-18T10:08:41;-3.90;99.90
33739;DHT22;20063;51.730;11.110;2022-12-18T10:11:28;-3.90;99.90
33739;DHT22;20063;51.730;11.110;2022-12-18T10:16:36;-3.80;99.90
33739;DHT22;20063;51.730;11.110;2022-12-18T10:19:26;-3.70;99.90
33739;DHT22;20063;51.730;11.110;2022-12-18T10:25:06;-3.40;99.90
33739;DHT22;20063;51.730;11.110;2022-12-18T10:27:39;-3.00;99.90
33739;DHT22;20063;51.730;11.110;2022-12-18T10:30:14;-2.70;99.90
33739;DHT22;20063;51.730;11.110;2022-12-18T10:32:41;-2.50;99.90
33739;DHT22;20063;51.730;11.110;2022-12-18T10:35:24;-2.30;99.90
33739;DHT22;20063;51.730;11.110;2022-12-18T10:43:15;-1.70;99.90
33739;DHT22;20063;51.730;11.110;2022-12-18T10:45:42;-1.50;99.90
33739;DHT22;20063;51.730;11.110;2022-12-18T10:48:22;-1.50;99.90
33739;DHT22;20063;51.730;11.110;2022-12-18T10:50:50;-1.40;99.90
33739;DHT22;20063;51.730;11.110;2022-12-18T10:53:28;-1.20;99.90
33739;DHT22;20063;51.730;11.110;2022-12-18T10:55:57;-1.20;99.90
33739;DHT22;20063;51.730;11.110;2022-12-18T11:03:32;-0.90;99.90
33739;DHT22;20063;51.730;11.110;2022-12-18T11:06:06;-0.90;99.90
33739;DHT22;20063;51.730;11.110;2022-12-18T11:08:32;-1.00;99.90
33739;DHT22;20063;51.730;11.110;2022-12-18T11:10:58;-1.10;99.90
33739;DHT22;20063;51.730;11.110;2022-12-18T11:13:26;-1.20;99.90
33739;DHT22;20063;51.730;11.110;2022-12-18T11:15:53;-1.20;99.90
33739;DHT22;20063;51.730;11.110;2022-12-18T11:18:20;-1.20;99.90
33739;DHT22;20063;51.730;11.110;2022-12-18T11:20:59;-1.10;99.90
33739;DHT22;20063;51.730;11.110;2022-12-18T11:23:26;-1.00;99.90
33739;DHT22;20063;51.730;11.110;2022-12-18T11:25:55;-1.00;99.90
33739;DHT22;20063;51.730;11.110;2022-12-18T11:29:12;-0.90;99.90
33739;DHT22;20063;51.730;11.110;2022-12-18T11:31:28;-0.90;99.90
33739;DHT22;20063;51.730;11.110;2022-12-18T11:34:23;-0.80;99.90
33739;DHT22;20063;51.730;11.110;2022-12-18T11:36:50;-0.80;99.90
33739;DHT22;20063;51.730;11.110;2022-12-18T11:39:17;-0.80;99.90
33739;DHT22;20063;51.730;11.110;2022-12-18T11:41:56;-0.70;99.90
33739;DHT22;20063;51.730;11.110;2022-12-18T11:49:48;-0.70;99.90
33739;DHT22;20063;51.730;11.110;2022-12-18T11:54:58;-0.60;99.90
33739;DHT22;20063;51.730;11.110;2022-12-18T11:58:20;-0.60;99.90
33739;DHT22;20063;51.730;11.110;2022-12-18T12:00:21;-0.60;99.90
33739;DHT22;20063;51.730;11.110;2022-12-18T12:06:03;-0.50;99.90
33739;DHT22;20063;51.730;11.110;2022-12-18T12:19:50;-0.50;99.90
33739;DHT22;20063;51.730;11.110;2022-12-18T12:22:34;-0.50;99.90
33739;DHT22;20063;51.730;11.110;2022-12-18T12:25:20;-0.40;99.90
33739;DHT22;20063;51.730;11.110;2022-12-18T12:38:52;-0.50;99.90
33739;DHT22;20063;51.730;11.110;2022-12-18T12:41:25;-0.50;99.90
33739;DHT22;20063;51.730;11.110;2022-12-18T12:44:26;-0.60;99.90
33739;DHT22;20063;51.730;11.110;2022-12-18T12:46:57;-0.60;99.90
33739;DHT22;20063;51.730;11.110;2022-12-18T12:49:27;-0.70;99.90
33739;DHT22;20063;51.730;11.110;2022-12-18T12:52:15;-0.70;99.90
33739;DHT22;20063;51.730;11.110;2022-12-18T12:54:43;-0.70;99.90
33739;DHT22;20063;51.730;11.110;2022-12-18T13:00:07;-0.70;99.90
33739;DHT22;20063;51.730;11.110;2022-12-18T13:05:50;-0.90;99.90
33739;DHT22;20063;51.730;11.110;2022-12-18T13:08:29;-0.90;99.90
33739;DHT22;20063;51.730;11.110;2022-12-18T13:10:57;-0.90;99.90
33739;DHT22;20063;51.730;11.110;2022-12-18T13:13:52;-1.00;99.90
33739;DHT22;20063;51.730;11.110;2022-12-18T13:16:19;-1.10;99.90
33739;DHT22;20063;51.730;11.110;2022-12-18T13:18:53;-1.10;99.90
33739;DHT22;20063;51.730;11.110;2022-12-18T13:21:34;-1.20;99.90
33739;DHT22;20063;51.730;11.110;2022-12-18T13:24:27;-1.20;99.90
33739;DHT22;20063;51.730;11.110;2022-12-18T13:26:54;-1.20;99.90
33739;DHT22;20063;51.730;11.110;2022-12-18T13:32:20;-1.30;99.90
33739;DHT22;20063;51.730;11.110;2022-12-18T13:34:46;-1.40;99.90
33739;DHT22;20063;51.730;11.110;2022-12-18T13:39:56;-1.40;99.90
33739;DHT22;20063;51.730;11.110;2022-12-18T13:42:34;-1.50;99.90
33739;DHT22;20063;51.730;11.110;2022-12-18T13:45:42;-1.50;99.90
33739;DHT22;20063;51.730;11.110;2022-12-18T13:48:16;-1.50;99.90
33739;DHT22;20063;51.730;11.110;2022-12-18T13:51:08;-1.40;99.90
33739;DHT22;20063;51.730;11.110;2022-12-18T13:54:02;-1.30;99.90
33739;DHT22;20063;51.730;11.110;2022-12-18T13:56:30;-1.30;99.90
33739;DHT22;20063;51.730;11.110;2022-12-18T14:01:55;-1.10;99.90
33739;DHT22;20063;51.730;11.110;2022-12-18T14:04:22;-1.00;99.90
33739;DHT22;20063;51.730;11.110;2022-12-18T14:06:52;-1.00;99.90
33739;DHT22;20063;51.730;11.110;2022-12-18T14:09:23;-0.90;99.90
33739;DHT22;20063;51.730;11.110;2022-12-18T14:11:50;-0.90;99.90
33739;DHT22;20063;51.730;11.110;2022-12-18T14:14:19;-0.80;99.90
33739;DHT22;20063;51.730;11.110;2022-12-18T14:16:46;-0.80;99.90
33739;DHT22;20063;51.730;11.110;2022-12-18T14:19:16;-0.70;99.90
33739;DHT22;20063;51.730;11.110;2022-12-18T14:21:47;-0.70;99.90
33739;DHT22;20063;51.730;11.110;2022-12-18T14:24:19;-0.70;99.90
33739;DHT22;20063;51.730;11.110;2022-12-18T14:26:50;-0.70;99.90
33739;DHT22;20063;51.730;11.110;2022-12-18T14:29:27;-0.70;99.90
33739;DHT22;20063;51.730;11.110;2022-12-18T14:32:13;-0.60;99.90
33739;DHT22;20063;51.730;11.110;2022-12-18T14:34:41;-0.60;99.90
33739;DHT22;20063;51.730;11.110;2022-12-18T14:37:10;-0.60;99.90
33739;DHT22;20063;51.730;11.110;2022-12-18T14:39:39;-0.60;99.90
33739;DHT22;20063;51.730;11.110;2022-12-18T14:42:05;-0.60;99.90
33739;DHT22;20063;51.730;11.110;2022-12-18T14:44:31;-0.60;99.90
33739;DHT22;20063;51.730;11.110;2022-12-18T14:46:56;-0.70;99.90
33739;DHT22;20063;51.730;11.110;2022-12-18T14:49:31;-0.70;99.90
33739;DHT22;20063;51.730;11.110;2022-12-18T14:52:06;-0.80;99.90
33739;DHT22;20063;51.730;11.110;2022-12-18T14:54:32;-0.90;99.90
33739;DHT22;20063;51.730;11.110;2022-12-18T14:57:19;-0.90;99.90
33739;DHT22;20063;51.730;11.110;2022-12-18T14:59:46;-0.90;99.90
33739;DHT22;20063;51.730;11.110;2022-12-18T15:02:19;-1.00;99.90
33739;DHT22;20063;51.730;11.110;2022-12-18T15:04:46;-1.00;99.90
33739;DHT22;20063;51.730;11.110;2022-12-18T15:10:08;-1.10;99.90
33739;DHT22;20063;51.730;11.110;2022-12-18T15:12:47;-1.10;99.90
33739;DHT22;20063;51.730;11.110;2022-12-18T15:20:27;-1.20;99.90
33739;DHT22;20063;51.730;11.110;2022-12-18T15:22:56;-1.20;99.90
33739;DHT22;20063;51.730;11.110;2022-12-18T15:25:36;-1.30;99.90
33739;DHT22;20063;51.730;11.110;2022-12-18T15:28:03;-1.30;99.90
33739;DHT22;20063;51.730;11.110;2022-12-18T15:30:29;-1.30;99.90
33739;DHT22;20063;51.730;11.110;2022-12-18T15:33:16;-1.40;99.90
33739;DHT22;20063;51.730;11.110;2022-12-18T15:35:43;-1.30;99.90
33739;DHT22;20063;51.730;11.110;2022-12-18T15:38:09;-1.30;99.90
33739;DHT22;20063;51.730;11.110;2022-12-18T15:40:34;-1.40;99.90
33739;DHT22;20063;51.730;11.110;2022-12-18T15:43:00;-1.40;99.90
33739;DHT22;20063;51.730;11.110;2022-12-18T15:45:44;-1.50;99.90
33739;DHT22;20063;51.730;11.110;2022-12-18T15:48:19;-1.50;99.90
33739;DHT22;20063;51.730;11.110;2022-12-18T15:50:45;-1.50;99.90
33739;DHT22;20063;51.730;11.110;2022-12-18T15:53:11;-1.50;99.90
33739;DHT22;20063;51.730;11.110;2022-12-18T15:55:37;-1.50;99.90
33739;DHT22;20063;51.730;11.110;2022-12-18T15:58:21;-1.60;99.90
33739;DHT22;20063;51.730;11.110;2022-12-18T16:00:47;-1.60;99.90
33739;DHT22;20063;51.730;11.110;2022-12-18T16:03:13;-1.60;99.90
33739;DHT22;20063;51.730;11.110;2022-12-18T16:05:38;-1.70;99.90
33739;DHT22;20063;51.730;11.110;2022-12-18T16:08:04;-1.70;99.90
33739;DHT22;20063;51.730;11.110;2022-12-18T16:10:30;-1.60;99.90
33739;DHT22;20063;51.730;11.110;2022-12-18T16:12:56;-1.70;99.90
33739;DHT22;20063;51.730;11.110;2022-12-18T16:15:21;-1.70;99.90
33739;DHT22;20063;51.730;11.110;2022-12-18T16:17:47;-1.80;99.90
33739;DHT22;20063;51.730;11.110;2022-12-18T16:20:15;-1.80;99.90
33739;DHT22;20063;51.730;11.110;2022-12-18T16:22:42;-1.80;99.90
33739;DHT22;20063;51.730;11.110;2022-12-18T16:27:41;-1.70;99.90
33739;DHT22;20063;51.730;11.110;2022-12-18T16:30:15;-1.80;99.90
33739;DHT22;20063;51.730;11.110;2022-12-18T16:32:41;-1.80;99.90
33739;DHT22;20063;51.730;11.110;2022-12-18T16:35:10;-1.80;99.90
33739;DHT22;20063;51.730;11.110;2022-12-18T16:37:36;-1.70;99.90
33739;DHT22;20063;51.730;11.110;2022-12-18T16:40:02;-1.70;99.90
33739;DHT22;20063;51.730;11.110;2022-12-18T16:42:28;-1.60;99.90
33739;DHT22;20063;51.730;11.110;2022-12-18T16:44:53;-1.50;99.90
33739;DHT22;20063;51.730;11.110;2022-12-18T16:47:19;-1.40;99.90
33739;DHT22;20063;51.730;11.110;2022-12-18T16:49:44;-1.50;99.90
33739;DHT22;20063;51.730;11.110;2022-12-18T16:52:10;-1.40;99.90
33739;DHT22;20063;51.730;11.110;2022-12-18T16:54:36;-1.40;99.90
33739;DHT22;20063;51.730;11.110;2022-12-18T16:57:03;-1.30;99.90
33739;DHT22;20063;51.730;11.110;2022-12-18T16:59:29;-1.30;99.90
33739;DHT22;20063;51.730;11.110;2022-12-18T17:01:55;-1.30;99.90
33739;DHT22;20063;51.730;11.110;2022-12-18T17:04:21;-1.30;99.90
33739;DHT22;20063;51.730;11.110;2022-12-18T17:06:47;-1.20;99.90
33739;DHT22;20063;51.730;11.110;2022-12-18T17:09:20;-1.20;99.90
33739;DHT22;20063;51.730;11.110;2022-12-18T17:11:48;-1.20;99.90
33739;DHT22;20063;51.730;11.110;2022-12-18T17:14:16;-1.20;99.90
33739;DHT22;20063;51.730;11.110;2022-12-18T17:16:42;-1.20;99.90
33739;DHT22;20063;51.730;11.110;2022-12-18T17:19:11;-1.10;99.90